sensor_id;sensor_type;location;lat;lon;timestamp;P1;durP1;ratioP1;P2;durP2;ratioP2
76574;SDS011;65439;50.948;6.988;2023-07-24T00:01:41;5.87;;;3.83;;
76574;SDS011;65439;50.948;6.988;2023-07-24T00:04:07;6.28;;;4.72;;
76574;SDS011;65439;50.948;6.988;2023-07-24T00:06:32;7.07;;;4.27;;
76574;SDS011;65439;50.948;6.988;2023-07-24T00:08:57;7.90;;;4.20;;
76574;SDS011;65439;50.948;6.988;2023-07-24T00:11:22;5.57;;;4.07;;
76574;SDS011;65439;50.948;6.988;2023-07-24T00:13:48;5.10;;;3.77;;
76574;SDS011;65439;50.948;6.988;2023-07-24T00:16:13;4.37;;;3.40;;
76574;SDS011;65439;50.948;6.988;2023-07-24T00:18:38;4.73;;;3.80;;
76574;SDS011;65439;50.948;6.988;2023-07-24T00:21:04;5.53;;;3.50;;
76574;SDS011;65439;50.948;6.988;2023-07-24T00:23:29;5.10;;;3.90;;
76574;SDS011;65439;50.948;6.988;2023-07-24T00:25:54;5.37;;;3.47;;
76574;SDS011;65439;50.948;6.988;2023-07-24T00:28:20;4.13;;;3.67;;
76574;SDS011;65439;50.948;6.988;2023-07-24T00:30:45;6.43;;;4.70;;
76574;SDS011;65439;50.948;6.988;2023-07-24T00:33:11;7.13;;;4.13;;
76574;SDS011;65439;50.948;6.988;2023-07-24T00:35:36;5.60;;;4.05;;
76574;SDS011;65439;50.948;6.988;2023-07-24T00:38:01;5.63;;;4.07;;
76574;SDS011;65439;50.948;6.988;2023-07-24T00:40:26;5.30;;;3.87;;
76574;SDS011;65439;50.948;6.988;2023-07-24T00:42:52;7.77;;;4.03;;
76574;SDS011;65439;50.948;6.988;2023-07-24T00:45:17;7.67;;;5.20;;
76574;SDS011;65439;50.948;6.988;2023-07-24T00:47:43;5.40;;;4.23;;
76574;SDS011;65439;50.948;6.988;2023-07-24T00:50:08;6.45;;;4.32;;
76574;SDS011;65439;50.948;6.988;2023-07-24T00:52:34;6.57;;;5.82;;
76574;SDS011;65439;50.948;6.988;2023-07-24T00:54:59;11.63;;;5.00;;
76574;SDS011;65439;50.948;6.988;2023-07-24T00:57:25;6.75;;;4.63;;
76574;SDS011;65439;50.948;6.988;2023-07-24T00:59:50;6.72;;;4.90;;
76574;SDS011;65439;50.948;6.988;2023-07-24T01:02:16;6.25;;;4.63;;
76574;SDS011;65439;50.948;6.988;2023-07-24T01:04:41;7.10;;;4.37;;
76574;SDS011;65439;50.948;6.988;2023-07-24T01:07:07;8.33;;;4.60;;
76574;SDS011;65439;50.948;6.988;2023-07-24T01:09:32;6.38;;;4.63;;
76574;SDS011;65439;50.948;6.988;2023-07-24T01:14:47;5.90;;;4.65;;
76574;SDS011;65439;50.948;6.988;2023-07-24T01:17:15;5.32;;;3.97;;
76574;SDS011;65439;50.948;6.988;2023-07-24T01:19:42;5.55;;;4.32;;
76574;SDS011;65439;50.948;6.988;2023-07-24T01:25:10;5.60;;;4.43;;
76574;SDS011;65439;50.948;6.988;2023-07-24T01:27:56;7.18;;;4.82;;
76574;SDS011;65439;50.948;6.988;2023-07-24T01:30:21;6.23;;;3.63;;
76574;SDS011;65439;50.948;6.988;2023-07-24T01:32:47;6.20;;;4.32;;
76574;SDS011;65439;50.948;6.988;2023-07-24T01:35:12;7.15;;;4.78;;
76574;SDS011;65439;50.948;6.988;2023-07-24T01:37:38;6.83;;;4.27;;
76574;SDS011;65439;50.948;6.988;2023-07-24T01:40:06;6.63;;;4.22;;
76574;SDS011;65439;50.948;6.988;2023-07-24T01:42:32;8.35;;;4.78;;
76574;SDS011;65439;50.948;6.988;2023-07-24T01:44:58;9.18;;;5.15;;
76574;SDS011;65439;50.948;6.988;2023-07-24T01:47:23;10.07;;;4.80;;
76574;SDS011;65439;50.948;6.988;2023-07-24T01:49:49;6.72;;;5.25;;
76574;SDS011;65439;50.948;6.988;2023-07-24T01:52:15;7.23;;;4.60;;
76574;SDS011;65439;50.948;6.988;2023-07-24T01:54:40;5.10;;;4.15;;
76574;SDS011;65439;50.948;6.988;2023-07-24T01:57:06;5.47;;;3.97;;
76574;SDS011;65439;50.948;6.988;2023-07-24T01:59:31;6.40;;;4.63;;
76574;SDS011;65439;50.948;6.988;2023-07-24T02:01:56;8.70;;;4.57;;
76574;SDS011;65439;50.948;6.988;2023-07-24T02:04:22;5.17;;;3.67;;
76574;SDS011;65439;50.948;6.988;2023-07-24T02:06:49;5.72;;;4.05;;
76574;SDS011;65439;50.948;6.988;2023-07-24T02:09:15;6.82;;;3.72;;
76574;SDS011;65439;50.948;6.988;2023-07-24T02:11:41;5.60;;;4.82;;
76574;SDS011;65439;50.948;6.988;2023-07-24T02:14:06;6.05;;;4.35;;
76574;SDS011;65439;50.948;6.988;2023-07-24T02:16:31;5.37;;;3.90;;
76574;SDS011;65439;50.948;6.988;2023-07-24T02:18:57;5.72;;;3.88;;
76574;SDS011;65439;50.948;6.988;2023-07-24T02:21:22;5.93;;;4.17;;
76574;SDS011;65439;50.948;6.988;2023-07-24T02:23:47;6.60;;;4.13;;
76574;SDS011;65439;50.948;6.988;2023-07-24T02:26:12;7.10;;;5.03;;
76574;SDS011;65439;50.948;6.988;2023-07-24T02:28:38;5.03;;;4.28;;
76574;SDS011;65439;50.948;6.988;2023-07-24T02:31:03;7.90;;;4.67;;
76574;SDS011;65439;50.948;6.988;2023-07-24T02:33:28;8.53;;;4.30;;
76574;SDS011;65439;50.948;6.988;2023-07-24T02:35:54;6.97;;;4.40;;
76574;SDS011;65439;50.948;6.988;2023-07-24T02:38:19;8.37;;;4.20;;
76574;SDS011;65439;50.948;6.988;2023-07-24T02:40:44;7.30;;;4.23;;
76574;SDS011;65439;50.948;6.988;2023-07-24T02:43:10;5.97;;;4.40;;
76574;SDS011;65439;50.948;6.988;2023-07-24T02:45:36;6.18;;;4.18;;
76574;SDS011;65439;50.948;6.988;2023-07-24T02:48:03;6.18;;;4.25;;
76574;SDS011;65439;50.948;6.988;2023-07-24T02:50:28;6.63;;;4.43;;
76574;SDS011;65439;50.948;6.988;2023-07-24T02:52:54;8.55;;;4.43;;
76574;SDS011;65439;50.948;6.988;2023-07-24T02:55:19;6.43;;;3.97;;
76574;SDS011;65439;50.948;6.988;2023-07-24T02:57:44;7.93;;;4.20;;
76574;SDS011;65439;50.948;6.988;2023-07-24T03:00:10;6.47;;;4.32;;
76574;SDS011;65439;50.948;6.988;2023-07-24T03:02:36;6.53;;;3.97;;
76574;SDS011;65439;50.948;6.988;2023-07-24T03:05:01;10.13;;;4.60;;
76574;SDS011;65439;50.948;6.988;2023-07-24T03:07:27;7.95;;;4.47;;
76574;SDS011;65439;50.948;6.988;2023-07-24T03:09:52;7.67;;;5.53;;
76574;SDS011;65439;50.948;6.988;2023-07-24T03:12:18;5.33;;;3.90;;
76574;SDS011;65439;50.948;6.988;2023-07-24T03:14:43;6.67;;;4.17;;
76574;SDS011;65439;50.948;6.988;2023-07-24T03:17:08;9.35;;;5.18;;
76574;SDS011;65439;50.948;6.988;2023-07-24T03:19:33;7.40;;;4.60;;
76574;SDS011;65439;50.948;6.988;2023-07-24T03:21:59;7.27;;;4.57;;
76574;SDS011;65439;50.948;6.988;2023-07-24T03:24:24;7.30;;;3.92;;
76574;SDS011;65439;50.948;6.988;2023-07-24T03:26:49;5.97;;;4.13;;
76574;SDS011;65439;50.948;6.988;2023-07-24T03:29:15;10.37;;;4.33;;
76574;SDS011;65439;50.948;6.988;2023-07-24T03:31:40;6.57;;;4.23;;
76574;SDS011;65439;50.948;6.988;2023-07-24T03:34:05;8.03;;;5.23;;
76574;SDS011;65439;50.948;6.988;2023-07-24T03:36:31;8.17;;;3.97;;
76574;SDS011;65439;50.948;6.988;2023-07-24T03:38:56;8.37;;;4.27;;
76574;SDS011;65439;50.948;6.988;2023-07-24T03:41:21;6.83;;;4.27;;
76574;SDS011;65439;50.948;6.988;2023-07-24T03:43:46;6.77;;;4.27;;
76574;SDS011;65439;50.948;6.988;2023-07-24T03:46:12;7.17;;;4.23;;
76574;SDS011;65439;50.948;6.988;2023-07-24T03:48:37;6.80;;;4.43;;
76574;SDS011;65439;50.948;6.988;2023-07-24T03:51:03;7.35;;;4.25;;
76574;SDS011;65439;50.948;6.988;2023-07-24T03:53:28;7.90;;;4.33;;
76574;SDS011;65439;50.948;6.988;2023-07-24T03:55:54;7.38;;;4.65;;
76574;SDS011;65439;50.948;6.988;2023-07-24T03:58:19;6.28;;;4.40;;
76574;SDS011;65439;50.948;6.988;2023-07-24T04:00:45;8.05;;;3.97;;
76574;SDS011;65439;50.948;6.988;2023-07-24T04:03:10;6.40;;;3.78;;
76574;SDS011;65439;50.948;6.988;2023-07-24T04:05:36;9.63;;;5.40;;
76574;SDS011;65439;50.948;6.988;2023-07-24T04:08:01;6.03;;;4.00;;
76574;SDS011;65439;50.948;6.988;2023-07-24T04:10:27;7.97;;;4.40;;
76574;SDS011;65439;50.948;6.988;2023-07-24T04:12:53;6.80;;;4.10;;
76574;SDS011;65439;50.948;6.988;2023-07-24T04:15:18;6.90;;;4.18;;
76574;SDS011;65439;50.948;6.988;2023-07-24T04:17:44;7.63;;;3.80;;
76574;SDS011;65439;50.948;6.988;2023-07-24T04:20:09;6.63;;;4.00;;
76574;SDS011;65439;50.948;6.988;2023-07-24T04:22:35;7.38;;;4.70;;
76574;SDS011;65439;50.948;6.988;2023-07-24T04:25:00;6.40;;;4.40;;
76574;SDS011;65439;50.948;6.988;2023-07-24T04:27:25;10.40;;;3.60;;
76574;SDS011;65439;50.948;6.988;2023-07-24T04:29:50;6.57;;;4.10;;
76574;SDS011;65439;50.948;6.988;2023-07-24T04:32:16;6.47;;;4.07;;
76574;SDS011;65439;50.948;6.988;2023-07-24T04:34:41;8.30;;;4.33;;
76574;SDS011;65439;50.948;6.988;2023-07-24T04:37:06;7.57;;;4.27;;
76574;SDS011;65439;50.948;6.988;2023-07-24T04:39:32;9.47;;;4.30;;
76574;SDS011;65439;50.948;6.988;2023-07-24T04:41:58;6.32;;;3.67;;
76574;SDS011;65439;50.948;6.988;2023-07-24T04:44:23;7.50;;;4.93;;
76574;SDS011;65439;50.948;6.988;2023-07-24T04:46:49;8.00;;;4.50;;
76574;SDS011;65439;50.948;6.988;2023-07-24T04:49:15;6.40;;;4.13;;
76574;SDS011;65439;50.948;6.988;2023-07-24T04:51:40;6.53;;;3.63;;
76574;SDS011;65439;50.948;6.988;2023-07-24T04:54:05;7.67;;;4.10;;
76574;SDS011;65439;50.948;6.988;2023-07-24T04:56:31;6.30;;;4.25;;
76574;SDS011;65439;50.948;6.988;2023-07-24T04:58:56;5.87;;;4.10;;
76574;SDS011;65439;50.948;6.988;2023-07-24T05:01:21;5.90;;;4.07;;
76574;SDS011;65439;50.948;6.988;2023-07-24T05:03:47;7.00;;;5.22;;
76574;SDS011;65439;50.948;6.988;2023-07-24T05:06:12;8.00;;;4.33;;
76574;SDS011;65439;50.948;6.988;2023-07-24T05:08:37;6.27;;;3.70;;
76574;SDS011;65439;50.948;6.988;2023-07-24T05:11:03;5.78;;;3.70;;
76574;SDS011;65439;50.948;6.988;2023-07-24T05:13:28;4.90;;;3.60;;
76574;SDS011;65439;50.948;6.988;2023-07-24T05:15:53;6.03;;;4.10;;
76574;SDS011;65439;50.948;6.988;2023-07-24T05:18:19;7.73;;;4.23;;
76574;SDS011;65439;50.948;6.988;2023-07-24T05:20:45;7.35;;;4.95;;
76574;SDS011;65439;50.948;6.988;2023-07-24T05:23:11;7.90;;;3.50;;
76574;SDS011;65439;50.948;6.988;2023-07-24T05:25:37;5.87;;;4.00;;
76574;SDS011;65439;50.948;6.988;2023-07-24T05:28:02;7.90;;;4.07;;
76574;SDS011;65439;50.948;6.988;2023-07-24T05:30:27;7.00;;;4.50;;
76574;SDS011;65439;50.948;6.988;2023-07-24T05:32:53;8.82;;;4.43;;
76574;SDS011;65439;50.948;6.988;2023-07-24T05:35:18;6.63;;;3.87;;
76574;SDS011;65439;50.948;6.988;2023-07-24T05:37:44;7.00;;;3.80;;
76574;SDS011;65439;50.948;6.988;2023-07-24T05:40:09;6.80;;;3.67;;
76574;SDS011;65439;50.948;6.988;2023-07-24T05:42:34;5.63;;;3.53;;
76574;SDS011;65439;50.948;6.988;2023-07-24T05:45:06;6.25;;;3.75;;
76574;SDS011;65439;50.948;6.988;2023-07-24T05:47:32;5.45;;;3.67;;
76574;SDS011;65439;50.948;6.988;2023-07-24T05:49:57;7.63;;;4.10;;
76574;SDS011;65439;50.948;6.988;2023-07-24T05:52:23;8.60;;;3.90;;
76574;SDS011;65439;50.948;6.988;2023-07-24T05:54:48;6.10;;;3.83;;
76574;SDS011;65439;50.948;6.988;2023-07-24T05:57:13;8.70;;;4.00;;
76574;SDS011;65439;50.948;6.988;2023-07-24T05:59:38;7.40;;;4.30;;
76574;SDS011;65439;50.948;6.988;2023-07-24T06:02:04;9.07;;;4.60;;
76574;SDS011;65439;50.948;6.988;2023-07-24T06:04:30;5.78;;;3.45;;
76574;SDS011;65439;50.948;6.988;2023-07-24T06:06:55;9.60;;;3.45;;
76574;SDS011;65439;50.948;6.988;2023-07-24T06:09:20;5.57;;;3.93;;
76574;SDS011;65439;50.948;6.988;2023-07-24T06:11:46;7.80;;;4.47;;
76574;SDS011;65439;50.948;6.988;2023-07-24T06:14:11;7.93;;;4.30;;
76574;SDS011;65439;50.948;6.988;2023-07-24T06:16:36;7.88;;;4.47;;
76574;SDS011;65439;50.948;6.988;2023-07-24T06:19:02;6.70;;;4.50;;
76574;SDS011;65439;50.948;6.988;2023-07-24T06:21:27;7.17;;;3.80;;
76574;SDS011;65439;50.948;6.988;2023-07-24T06:23:52;10.63;;;4.63;;
76574;SDS011;65439;50.948;6.988;2023-07-24T06:26:18;8.33;;;4.17;;
76574;SDS011;65439;50.948;6.988;2023-07-24T06:28:43;7.70;;;3.80;;
76574;SDS011;65439;50.948;6.988;2023-07-24T06:31:08;6.97;;;4.43;;
76574;SDS011;65439;50.948;6.988;2023-07-24T06:33:33;6.13;;;3.87;;
76574;SDS011;65439;50.948;6.988;2023-07-24T06:35:59;7.43;;;4.63;;
76574;SDS011;65439;50.948;6.988;2023-07-24T06:38:24;6.32;;;4.10;;
76574;SDS011;65439;50.948;6.988;2023-07-24T06:40:49;6.97;;;4.60;;
76574;SDS011;65439;50.948;6.988;2023-07-24T06:43:15;8.38;;;4.13;;
76574;SDS011;65439;50.948;6.988;2023-07-24T06:45:40;6.90;;;3.95;;
76574;SDS011;65439;50.948;6.988;2023-07-24T06:48:06;6.40;;;4.37;;
76574;SDS011;65439;50.948;6.988;2023-07-24T06:50:31;5.80;;;3.90;;
76574;SDS011;65439;50.948;6.988;2023-07-24T06:52:56;6.27;;;3.97;;
76574;SDS011;65439;50.948;6.988;2023-07-24T06:55:22;6.72;;;3.78;;
76574;SDS011;65439;50.948;6.988;2023-07-24T06:57:47;7.47;;;4.27;;
76574;SDS011;65439;50.948;6.988;2023-07-24T07:00:13;6.43;;;4.20;;
76574;SDS011;65439;50.948;6.988;2023-07-24T07:02:38;5.13;;;3.88;;
76574;SDS011;65439;50.948;6.988;2023-07-24T07:05:04;6.60;;;3.78;;
76574;SDS011;65439;50.948;6.988;2023-07-24T07:07:29;5.35;;;4.05;;
76574;SDS011;65439;50.948;6.988;2023-07-24T07:09:55;5.87;;;3.97;;
76574;SDS011;65439;50.948;6.988;2023-07-24T07:12:20;6.10;;;3.87;;
76574;SDS011;65439;50.948;6.988;2023-07-24T07:14:45;5.67;;;3.17;;
76574;SDS011;65439;50.948;6.988;2023-07-24T07:17:11;6.20;;;3.60;;
76574;SDS011;65439;50.948;6.988;2023-07-24T07:19:36;5.17;;;3.50;;
76574;SDS011;65439;50.948;6.988;2023-07-24T07:22:01;5.70;;;3.43;;
76574;SDS011;65439;50.948;6.988;2023-07-24T07:24:27;6.10;;;2.60;;
76574;SDS011;65439;50.948;6.988;2023-07-24T07:26:52;6.33;;;3.07;;
76574;SDS011;65439;50.948;6.988;2023-07-24T07:29:17;4.20;;;3.10;;
76574;SDS011;65439;50.948;6.988;2023-07-24T07:31:43;5.47;;;3.87;;
76574;SDS011;65439;50.948;6.988;2023-07-24T07:34:08;5.33;;;2.90;;
76574;SDS011;65439;50.948;6.988;2023-07-24T07:36:33;4.90;;;3.20;;
76574;SDS011;65439;50.948;6.988;2023-07-24T07:38:58;4.90;;;3.03;;
76574;SDS011;65439;50.948;6.988;2023-07-24T07:41:24;5.47;;;3.00;;
76574;SDS011;65439;50.948;6.988;2023-07-24T07:43:49;8.70;;;3.03;;
76574;SDS011;65439;50.948;6.988;2023-07-24T07:46:14;7.67;;;4.13;;
76574;SDS011;65439;50.948;6.988;2023-07-24T07:48:40;6.23;;;3.60;;
76574;SDS011;65439;50.948;6.988;2023-07-24T07:51:06;6.75;;;4.15;;
76574;SDS011;65439;50.948;6.988;2023-07-24T07:53:31;4.40;;;3.23;;
76574;SDS011;65439;50.948;6.988;2023-07-24T07:55:57;4.00;;;3.22;;
76574;SDS011;65439;50.948;6.988;2023-07-24T07:58:23;6.15;;;3.70;;
76574;SDS011;65439;50.948;6.988;2023-07-24T08:00:49;6.55;;;4.15;;
76574;SDS011;65439;50.948;6.988;2023-07-24T08:03:14;5.38;;;3.45;;
76574;SDS011;65439;50.948;6.988;2023-07-24T08:05:39;5.60;;;4.17;;
76574;SDS011;65439;50.948;6.988;2023-07-24T08:08:05;5.53;;;3.50;;
76574;SDS011;65439;50.948;6.988;2023-07-24T08:10:30;5.43;;;3.93;;
76574;SDS011;65439;50.948;6.988;2023-07-24T08:12:55;5.50;;;3.73;;
76574;SDS011;65439;50.948;6.988;2023-07-24T08:15:21;6.90;;;3.60;;
76574;SDS011;65439;50.948;6.988;2023-07-24T08:17:46;6.38;;;3.85;;
76574;SDS011;65439;50.948;6.988;2023-07-24T08:20:11;5.70;;;3.50;;
76574;SDS011;65439;50.948;6.988;2023-07-24T08:22:36;6.87;;;3.90;;
76574;SDS011;65439;50.948;6.988;2023-07-24T08:25:02;5.88;;;3.97;;
76574;SDS011;65439;50.948;6.988;2023-07-24T08:27:28;8.43;;;4.25;;
76574;SDS011;65439;50.948;6.988;2023-07-24T08:29:53;5.45;;;3.40;;
76574;SDS011;65439;50.948;6.988;2023-07-24T08:32:19;5.95;;;3.88;;
76574;SDS011;65439;50.948;6.988;2023-07-24T08:34:44;5.35;;;4.07;;
76574;SDS011;65439;50.948;6.988;2023-07-24T08:37:10;8.00;;;3.50;;
76574;SDS011;65439;50.948;6.988;2023-07-24T08:39:36;6.63;;;3.95;;
76574;SDS011;65439;50.948;6.988;2023-07-24T08:42:07;5.30;;;3.60;;
76574;SDS011;65439;50.948;6.988;2023-07-24T08:44:36;4.97;;;3.30;;
76574;SDS011;65439;50.948;6.988;2023-07-24T08:47:01;5.43;;;3.70;;
76574;SDS011;65439;50.948;6.988;2023-07-24T08:49:29;5.75;;;2.92;;
76574;SDS011;65439;50.948;6.988;2023-07-24T08:51:55;8.02;;;3.20;;
76574;SDS011;65439;50.948;6.988;2023-07-24T08:54:21;8.70;;;4.07;;
76574;SDS011;65439;50.948;6.988;2023-07-24T08:56:46;5.82;;;3.60;;
76574;SDS011;65439;50.948;6.988;2023-07-24T08:59:15;5.72;;;3.70;;
76574;SDS011;65439;50.948;6.988;2023-07-24T09:01:40;4.85;;;3.25;;
76574;SDS011;65439;50.948;6.988;2023-07-24T09:04:06;5.97;;;3.80;;
76574;SDS011;65439;50.948;6.988;2023-07-24T09:06:31;4.40;;;3.33;;
76574;SDS011;65439;50.948;6.988;2023-07-24T09:08:57;4.53;;;3.13;;
76574;SDS011;65439;50.948;6.988;2023-07-24T09:11:22;4.95;;;3.47;;
76574;SDS011;65439;50.948;6.988;2023-07-24T09:13:47;6.87;;;3.23;;
76574;SDS011;65439;50.948;6.988;2023-07-24T09:16:24;7.20;;;3.83;;
76574;SDS011;65439;50.948;6.988;2023-07-24T09:18:51;5.20;;;2.95;;
76574;SDS011;65439;50.948;6.988;2023-07-24T09:21:26;5.28;;;3.47;;
76574;SDS011;65439;50.948;6.988;2023-07-24T09:23:52;4.13;;;3.20;;
76574;SDS011;65439;50.948;6.988;2023-07-24T09:26:17;5.33;;;3.70;;
76574;SDS011;65439;50.948;6.988;2023-07-24T09:31:15;5.20;;;3.00;;
76574;SDS011;65439;50.948;6.988;2023-07-24T09:33:41;4.53;;;3.40;;
76574;SDS011;65439;50.948;6.988;2023-07-24T09:36:08;5.75;;;3.33;;
76574;SDS011;65439;50.948;6.988;2023-07-24T09:38:34;4.18;;;2.83;;
76574;SDS011;65439;50.948;6.988;2023-07-24T09:41:01;5.07;;;3.00;;
76574;SDS011;65439;50.948;6.988;2023-07-24T09:43:27;4.90;;;2.88;;
76574;SDS011;65439;50.948;6.988;2023-07-24T09:45:53;3.88;;;2.70;;
76574;SDS011;65439;50.948;6.988;2023-07-24T09:48:20;4.78;;;3.38;;
76574;SDS011;65439;50.948;6.988;2023-07-24T09:50:47;4.30;;;3.30;;
76574;SDS011;65439;50.948;6.988;2023-07-24T09:55:57;4.82;;;3.42;;
76574;SDS011;65439;50.948;6.988;2023-07-24T09:58:24;5.60;;;2.97;;
76574;SDS011;65439;50.948;6.988;2023-07-24T10:00:50;3.75;;;2.97;;
76574;SDS011;65439;50.948;6.988;2023-07-24T10:03:19;4.72;;;3.03;;
76574;SDS011;65439;50.948;6.988;2023-07-24T10:08:11;4.07;;;2.83;;
76574;SDS011;65439;50.948;6.988;2023-07-24T10:13:03;4.40;;;3.13;;
76574;SDS011;65439;50.948;6.988;2023-07-24T10:15:28;9.38;;;3.10;;
76574;SDS011;65439;50.948;6.988;2023-07-24T10:18:01;3.47;;;2.78;;
76574;SDS011;65439;50.948;6.988;2023-07-24T10:20:38;5.05;;;3.05;;
76574;SDS011;65439;50.948;6.988;2023-07-24T10:23:05;5.53;;;3.30;;
76574;SDS011;65439;50.948;6.988;2023-07-24T10:25:32;4.15;;;2.60;;
76574;SDS011;65439;50.948;6.988;2023-07-24T10:28:08;5.43;;;2.88;;
76574;SDS011;65439;50.948;6.988;2023-07-24T10:30:36;3.78;;;2.70;;
76574;SDS011;65439;50.948;6.988;2023-07-24T10:33:12;3.83;;;2.72;;
76574;SDS011;65439;50.948;6.988;2023-07-24T10:35:39;3.88;;;2.85;;
76574;SDS011;65439;50.948;6.988;2023-07-24T10:38:05;4.95;;;3.03;;
76574;SDS011;65439;50.948;6.988;2023-07-24T10:40:32;6.53;;;2.95;;
76574;SDS011;65439;50.948;6.988;2023-07-24T10:43:01;4.40;;;2.53;;
76574;SDS011;65439;50.948;6.988;2023-07-24T10:45:38;3.83;;;2.85;;
76574;SDS011;65439;50.948;6.988;2023-07-24T10:48:07;5.80;;;3.60;;
76574;SDS011;65439;50.948;6.988;2023-07-24T10:50:36;4.35;;;2.90;;
76574;SDS011;65439;50.948;6.988;2023-07-24T10:53:02;3.78;;;2.97;;
76574;SDS011;65439;50.948;6.988;2023-07-24T10:55:28;4.80;;;3.27;;
76574;SDS011;65439;50.948;6.988;2023-07-24T11:00:18;3.83;;;2.50;;
76574;SDS011;65439;50.948;6.988;2023-07-24T11:02:43;4.47;;;2.97;;
76574;SDS011;65439;50.948;6.988;2023-07-24T11:07:34;4.60;;;3.33;;
76574;SDS011;65439;50.948;6.988;2023-07-24T11:09:59;5.43;;;3.40;;
76574;SDS011;65439;50.948;6.988;2023-07-24T11:12:25;5.73;;;2.97;;
76574;SDS011;65439;50.948;6.988;2023-07-24T11:14:52;5.13;;;3.05;;
76574;SDS011;65439;50.948;6.988;2023-07-24T11:17:21;4.82;;;2.70;;
76574;SDS011;65439;50.948;6.988;2023-07-24T11:19:46;4.03;;;3.00;;
76574;SDS011;65439;50.948;6.988;2023-07-24T11:22:12;5.63;;;3.00;;
76574;SDS011;65439;50.948;6.988;2023-07-24T11:24:41;4.53;;;3.30;;
76574;SDS011;65439;50.948;6.988;2023-07-24T11:27:08;5.40;;;3.70;;
76574;SDS011;65439;50.948;6.988;2023-07-24T11:29:35;5.32;;;3.78;;
76574;SDS011;65439;50.948;6.988;2023-07-24T11:32:02;4.47;;;3.00;;
76574;SDS011;65439;50.948;6.988;2023-07-24T11:34:28;4.80;;;3.15;;
76574;SDS011;65439;50.948;6.988;2023-07-24T11:36:53;4.10;;;3.27;;
76574;SDS011;65439;50.948;6.988;2023-07-24T11:39:22;4.47;;;2.70;;
76574;SDS011;65439;50.948;6.988;2023-07-24T11:41:48;5.50;;;2.97;;
76574;SDS011;65439;50.948;6.988;2023-07-24T11:44:14;7.70;;;3.57;;
76574;SDS011;65439;50.948;6.988;2023-07-24T11:46:41;10.50;;;4.10;;
76574;SDS011;65439;50.948;6.988;2023-07-24T11:49:07;5.28;;;3.15;;
76574;SDS011;65439;50.948;6.988;2023-07-24T11:51:32;6.63;;;2.73;;
76574;SDS011;65439;50.948;6.988;2023-07-24T11:54:08;7.72;;;3.75;;
76574;SDS011;65439;50.948;6.988;2023-07-24T11:56:36;5.95;;;3.05;;
76574;SDS011;65439;50.948;6.988;2023-07-24T11:59:11;6.30;;;3.07;;
76574;SDS011;65439;50.948;6.988;2023-07-24T12:01:37;5.50;;;3.25;;
76574;SDS011;65439;50.948;6.988;2023-07-24T12:04:03;9.93;;;3.45;;
76574;SDS011;65439;50.948;6.988;2023-07-24T12:06:30;10.32;;;3.83;;
76574;SDS011;65439;50.948;6.988;2023-07-24T12:09:01;10.32;;;3.88;;
76574;SDS011;65439;50.948;6.988;2023-07-24T12:11:28;6.63;;;2.95;;
76574;SDS011;65439;50.948;6.988;2023-07-24T12:13:53;7.03;;;3.17;;
76574;SDS011;65439;50.948;6.988;2023-07-24T12:16:18;4.82;;;2.72;;
76574;SDS011;65439;50.948;6.988;2023-07-24T12:18:44;5.75;;;3.10;;
76574;SDS011;65439;50.948;6.988;2023-07-24T12:21:09;5.93;;;2.90;;
76574;SDS011;65439;50.948;6.988;2023-07-24T12:23:34;4.15;;;2.35;;
76574;SDS011;65439;50.948;6.988;2023-07-24T12:26:00;4.87;;;2.80;;
76574;SDS011;65439;50.948;6.988;2023-07-24T12:28:25;6.27;;;2.90;;
76574;SDS011;65439;50.948;6.988;2023-07-24T12:30:50;4.27;;;2.43;;
76574;SDS011;65439;50.948;6.988;2023-07-24T12:33:15;3.92;;;2.88;;
76574;SDS011;65439;50.948;6.988;2023-07-24T12:35:41;6.50;;;2.40;;
76574;SDS011;65439;50.948;6.988;2023-07-24T12:38:06;4.33;;;3.00;;
76574;SDS011;65439;50.948;6.988;2023-07-24T12:40:32;4.53;;;2.67;;
76574;SDS011;65439;50.948;6.988;2023-07-24T12:42:57;4.07;;;2.73;;
76574;SDS011;65439;50.948;6.988;2023-07-24T12:45:22;3.97;;;2.43;;
76574;SDS011;65439;50.948;6.988;2023-07-24T12:47:48;5.50;;;2.63;;
76574;SDS011;65439;50.948;6.988;2023-07-24T12:50:13;5.27;;;3.97;;
76574;SDS011;65439;50.948;6.988;2023-07-24T12:52:38;4.27;;;2.80;;
76574;SDS011;65439;50.948;6.988;2023-07-24T12:55:04;4.30;;;2.90;;
76574;SDS011;65439;50.948;6.988;2023-07-24T12:57:30;5.90;;;2.75;;
76574;SDS011;65439;50.948;6.988;2023-07-24T12:59:55;5.10;;;2.77;;
76574;SDS011;65439;50.948;6.988;2023-07-24T13:02:20;4.40;;;2.80;;
76574;SDS011;65439;50.948;6.988;2023-07-24T13:04:45;5.83;;;4.40;;
76574;SDS011;65439;50.948;6.988;2023-07-24T13:07:11;4.13;;;2.70;;
76574;SDS011;65439;50.948;6.988;2023-07-24T13:09:36;4.70;;;2.53;;
76574;SDS011;65439;50.948;6.988;2023-07-24T13:12:01;3.40;;;2.20;;
76574;SDS011;65439;50.948;6.988;2023-07-24T13:14:27;7.40;;;2.77;;
76574;SDS011;65439;50.948;6.988;2023-07-24T13:16:52;3.65;;;2.92;;
76574;SDS011;65439;50.948;6.988;2023-07-24T13:19:17;3.58;;;2.78;;
76574;SDS011;65439;50.948;6.988;2023-07-24T13:21:43;6.83;;;3.33;;
76574;SDS011;65439;50.948;6.988;2023-07-24T13:24:09;6.47;;;3.40;;
76574;SDS011;65439;50.948;6.988;2023-07-24T13:26:34;3.78;;;2.83;;
76574;SDS011;65439;50.948;6.988;2023-07-24T13:28:59;4.87;;;3.20;;
76574;SDS011;65439;50.948;6.988;2023-07-24T13:31:25;4.63;;;3.23;;
76574;SDS011;65439;50.948;6.988;2023-07-24T13:33:50;3.37;;;2.40;;
76574;SDS011;65439;50.948;6.988;2023-07-24T13:36:16;7.13;;;3.72;;
76574;SDS011;65439;50.948;6.988;2023-07-24T13:38:41;5.20;;;2.97;;
76574;SDS011;65439;50.948;6.988;2023-07-24T13:41:07;5.32;;;2.80;;
76574;SDS011;65439;50.948;6.988;2023-07-24T13:43:33;7.40;;;2.78;;
76574;SDS011;65439;50.948;6.988;2023-07-24T13:45:58;5.50;;;2.57;;
76574;SDS011;65439;50.948;6.988;2023-07-24T13:48:24;3.93;;;2.40;;
76574;SDS011;65439;50.948;6.988;2023-07-24T13:50:51;4.18;;;2.40;;
76574;SDS011;65439;50.948;6.988;2023-07-24T13:53:17;3.10;;;2.00;;
76574;SDS011;65439;50.948;6.988;2023-07-24T13:55:42;4.50;;;2.50;;
76574;SDS011;65439;50.948;6.988;2023-07-24T13:58:07;3.95;;;2.65;;
76574;SDS011;65439;50.948;6.988;2023-07-24T14:00:33;3.90;;;2.58;;
76574;SDS011;65439;50.948;6.988;2023-07-24T14:02:58;5.18;;;2.80;;
76574;SDS011;65439;50.948;6.988;2023-07-24T14:05:23;5.23;;;2.90;;
76574;SDS011;65439;50.948;6.988;2023-07-24T14:07:49;4.83;;;2.83;;
76574;SDS011;65439;50.948;6.988;2023-07-24T14:10:14;8.60;;;4.10;;
76574;SDS011;65439;50.948;6.988;2023-07-24T14:12:39;6.32;;;3.35;;
76574;SDS011;65439;50.948;6.988;2023-07-24T14:15:05;7.45;;;2.90;;
76574;SDS011;65439;50.948;6.988;2023-07-24T14:17:30;7.43;;;3.33;;
76574;SDS011;65439;50.948;6.988;2023-07-24T14:19:56;5.73;;;3.30;;
76574;SDS011;65439;50.948;6.988;2023-07-24T14:22:21;7.57;;;3.70;;
76574;SDS011;65439;50.948;6.988;2023-07-24T14:24:46;3.93;;;3.50;;
76574;SDS011;65439;50.948;6.988;2023-07-24T14:27:12;6.93;;;4.70;;
76574;SDS011;65439;50.948;6.988;2023-07-24T14:29:38;5.30;;;3.38;;
76574;SDS011;65439;50.948;6.988;2023-07-24T14:32:04;3.35;;;2.38;;
76574;SDS011;65439;50.948;6.988;2023-07-24T14:34:29;4.13;;;2.25;;
76574;SDS011;65439;50.948;6.988;2023-07-24T14:36:55;2.97;;;1.80;;
76574;SDS011;65439;50.948;6.988;2023-07-24T14:39:20;3.03;;;2.00;;
76574;SDS011;65439;50.948;6.988;2023-07-24T14:41:46;4.00;;;2.20;;
76574;SDS011;65439;50.948;6.988;2023-07-24T14:44:11;4.35;;;2.30;;
76574;SDS011;65439;50.948;6.988;2023-07-24T14:46:36;3.50;;;1.80;;
76574;SDS011;65439;50.948;6.988;2023-07-24T14:49:02;2.70;;;1.90;;
76574;SDS011;65439;50.948;6.988;2023-07-24T14:51:27;4.20;;;2.00;;
76574;SDS011;65439;50.948;6.988;2023-07-24T14:53:52;2.42;;;1.60;;
76574;SDS011;65439;50.948;6.988;2023-07-24T14:56:18;4.73;;;2.20;;
76574;SDS011;65439;50.948;6.988;2023-07-24T14:58:44;4.03;;;2.08;;
76574;SDS011;65439;50.948;6.988;2023-07-24T15:01:10;3.00;;;2.38;;